« 風邪をこじらせ・・・・寝込んだ・・・でも、飲み会→撃沈! | トップページ | 田植えと進空式とカレー! »

2010年4月17日 (土)

4月なのに雪!

寒い!
寒い×4!

朝、目が覚めたら外は雪でした!
4月だよね?

RJAA 162100Z 33015KT 3000 rain-RA BR FEW001 BKN004 03/02 Q1018 TEMPO typhoon36018G30KT
RJAA 162136Z 33015KT 2000 snowSHGSRA BR FEW002 BKN004 02/01 Q1019 RMK 1ST002 7ST004A3010 SMALL HAIL
RJAA 162200Z 33016KT 3500 rain-SHRA BR FEW002 BKN007 02/01 Q1019 TEMPO typhoon36018G30KT BKN004 BKN015
RJAA 162237Z 33016KT 3000 snowSHRAGS BR FEW003 BKN006 BKN020 01/01 Q1020 RMK 1ST0035ST006 7CU020 A3012 SMALL HAIL
RJAA 162330Z 32014KT 2300 R34L/P1800N R34R/P1800N snowSHSNGS BR FEW002 typhoonBKN005 BKN020 01/00 Q1021 TEMPO 36018G30KT
RJAA 170000Z 33017KT 3200 R34L/P1800N R34R/P1800N snowSHGSSN BR FEW005 BKN015 BKN030 01/00 Q1020 TEMPO 36018G30KT BKN004 BKN015
RJAA 170100Z 36020KT 9999 rain-SHRA FEW007 SCT020 BKN050 04/03 Q1019 RERASN TEMPO typhoon36018G30KT
RJAA 170300Z 36018KT 9999 FEW006 BKN008 06/04 Q1019 TEMPO typhoon02016G28KT BECMG BKN015
RJAA 170600Z 03014KT 360V060 9999 FEW016 BKN020 08/04 Q1020 NOSIG
RJAA 170800Z 06009KT 9999 FEW019 07/03 Q1021 BECMG 08006KT RMK 1CU019 A3016

|

« 風邪をこじらせ・・・・寝込んだ・・・でも、飲み会→撃沈! | トップページ | 田植えと進空式とカレー! »

日記・コラム・つぶやき」カテゴリの記事